Time;durP1;ratioP1;P1;durP2;ratioP2;P2;SDS_P1;SDS_P2;PMS_P1;PMS_P2;Temp;Humidity;BMP_temperature;BMP_pressure;BME280_temperature;BME280_humidity;BME280_pressure;Samples;Min_cycle;Max_cycle;Signal;HPM_P1;HPM_P2
2023/09/21 00:02:15;;;;;;;2.10;2.00;;;21.70;48.30;;;;;;21085;6688;67241;31
2023/09/21 00:04:41;;;;;;;2.10;1.90;;;21.40;48.60;;;;;;21069;6689;67349;31
2023/09/21 00:07:06;;;;;;;2.20;2.10;;;21.10;48.90;;;;;;20841;6689;313471;31
2023/09/21 00:09:32;;;;;;;2.20;1.87;;;21.30;49.20;;;;;;21115;6689;66772;31
2023/09/21 00:11:57;;;;;;;3.73;2.10;;;21.20;49.00;;;;;;20858;6689;302658;31
2023/09/21 00:14:23;;;;;;;2.00;1.90;;;21.40;49.20;;;;;;21084;6689;73759;31
2023/09/21 00:16:48;;;;;;;2.50;2.33;;;21.30;49.00;;;;;;20898;6682;303576;31
2023/09/21 00:19:16;;;;;;;2.40;2.20;;;21.40;49.10;;;;;;20865;6689;313545;31
2023/09/21 00:21:40;;;;;;;1.93;1.83;;;21.70;48.50;;;;;;21135;6675;66904;31
2023/09/21 00:24:16;;;;;;;2.13;1.90;;;21.60;48.60;;;;;;21103;6690;66962;31
2023/09/21 00:26:31;;;;;;;3.10;2.03;;;21.30;48.80;;;;;;20859;6690;303464;31
2023/09/21 00:28:58;;;;;;;2.42;2.33;;;21.40;48.70;;;;;;20897;6690;275372;31
2023/09/21 00:31:22;;;;;;;2.22;2.12;;;21.70;48.30;;;;;;20865;6690;313068;31
2023/09/21 00:33:48;;;;;;;2.40;2.20;;;21.90;47.90;;;;;;20878;6690;332355;31
2023/09/21 00:36:17;;;;;;;3.55;2.00;;;22.00;47.60;;;;;;21082;6690;66639;31
2023/09/21 00:38:39;;;;;;;2.63;2.03;;;21.80;47.80;;;;;;21095;6690;66599;31
2023/09/21 00:41:05;;;;;;;2.20;2.10;;;21.50;48.30;;;;;;20884;6690;305124;31
2023/09/21 00:43:30;;;;;;;2.43;2.27;;;21.50;48.40;;;;;;20889;6690;332879;31
2023/09/21 00:45:57;;;;;;;2.40;2.20;;;21.70;48.40;;;;;;20909;6690;284517;31
2023/09/21 00:48:36;;;;;;;2.30;1.92;;;21.90;47.90;;;;;;21099;6690;67026;31
2023/09/21 00:51:00;;;;;;;2.30;2.00;;;21.70;47.90;;;;;;21105;6690;69782;31
2023/09/21 00:53:28;;;;;;;2.72;2.00;;;21.30;48.40;;;;;;21086;6690;67432;31
2023/09/21 00:55:54;;;;;;;1.97;1.87;;;21.00;48.90;;;;;;21102;6690;67312;31
2023/09/21 00:58:20;;;;;;;2.50;2.40;;;20.70;49.30;;;;;;20891;6690;333331;31
2023/09/21 01:00:45;;;;;;;2.23;2.00;;;20.90;49.90;;;;;;21111;6690;66078;31
2023/09/21 01:03:13;;;;;;;1.87;1.77;;;20.90;49.70;;;;;;21114;6690;68242;31
2023/09/21 01:05:44;;;;;;;2.40;2.20;;;20.80;50.00;;;;;;20893;6690;276557;31
2023/09/21 01:08:10;;;;;;;2.57;2.20;;;20.90;49.80;;;;;;20880;6690;297498;31
2023/09/21 01:10:34;;;;;;;2.10;2.00;;;21.30;49.20;;;;;;21090;6690;67742;31
2023/09/21 01:13:00;;;;;;;2.40;2.20;;;21.20;49.00;;;;;;20879;6688;314180;31
2023/09/21 01:15:26;;;;;;;2.30;2.20;;;21.30;49.20;;;;;;21105;6689;65956;31
2023/09/21 01:17:51;;;;;;;2.70;2.30;;;21.20;49.20;;;;;;20881;6689;303796;31
2023/09/21 01:20:27;;;;;;;2.33;2.17;;;21.30;49.20;;;;;;21123;6681;72080;31
2023/09/21 01:22:49;;;;;;;2.50;2.30;;;21.20;49.10;;;;;;20850;6689;303793;31
2023/09/21 01:25:15;;;;;;;2.10;1.90;;;21.40;48.90;;;;;;21058;6689;67060;31
2023/09/21 01:27:40;;;;;;;2.20;2.10;;;21.20;48.90;;;;;;20904;6682;273987;31
2023/09/21 01:30:08;;;;;;;2.80;2.60;;;21.30;49.10;;;;;;20869;6689;313243;31
2023/09/21 01:32:31;;;;;;;2.40;2.20;;;21.60;48.70;;;;;;20879;6690;279546;31
2023/09/21 01:34:57;;;;;;;2.50;2.30;;;21.80;48.50;;;;;;20890;6690;332278;31
2023/09/21 01:37:23;;;;;;;2.20;2.10;;;21.90;48.80;;;;;;21157;6675;66265;31
2023/09/21 01:39:48;;;;;;;3.75;2.10;;;21.70;49.00;;;;;;21101;6690;70604;31
2023/09/21 01:42:15;;;;;;;2.10;2.00;;;21.30;49.40;;;;;;21092;6690;68275;31
2023/09/21 01:44:40;;;;;;;2.10;2.00;;;21.00;50.00;;;;;;21108;6690;66704;31
2023/09/21 01:47:05;;;;;;;2.50;2.30;;;20.80;50.10;;;;;;20878;6690;302875;31
2023/09/21 01:49:31;;;;;;;2.57;2.37;;;20.90;49.70;;;;;;20883;6690;309456;31
2023/09/21 01:51:56;;;;;;;2.03;1.92;;;21.30;49.00;;;;;;21098;6690;88872;31
2023/09/21 01:54:22;;;;;;;2.80;2.40;;;21.10;49.00;;;;;;20889;6690;280432;31
2023/09/21 01:56:47;;;;;;;2.42;2.22;;;21.30;49.00;;;;;;20890;6690;302977;31
2023/09/21 01:59:13;;;;;;;2.23;2.00;;;21.50;48.70;;;;;;21118;6682;66926;31
2023/09/21 02:01:41;;;;;;;2.83;2.30;;;21.40;48.90;;;;;;20878;6690;274605;31
2023/09/21 02:04:04;;;;;;;3.10;2.30;;;21.50;49.70;;;;;;20857;6690;343223;31
2023/09/21 02:06:30;;;;;;;2.43;2.10;;;21.70;49.70;;;;;;21084;6690;75422;31
2023/09/21 02:08:57;;;;;;;2.85;2.37;;;21.50;49.60;;;;;;20939;6690;283181;31
2023/09/21 02:11:21;;;;;;;2.70;2.47;;;21.50;49.50;;;;;;20935;6690;308859;31
2023/09/21 02:13:47;;;;;;;3.10;2.60;;;21.60;49.20;;;;;;20935;6690;274101;31
2023/09/21 02:16:14;;;;;;;2.47;2.33;;;21.60;49.00;;;;;;20868;6690;333207;31
2023/09/21 02:18:38;;;;;;;2.60;2.40;;;21.60;49.10;;;;;;20872;6690;312669;31
2023/09/21 02:21:07;;;;;;;2.57;2.17;;;21.60;49.10;;;;;;21082;6690;67650;31
2023/09/21 02:23:30;;;;;;;3.00;2.60;;;21.30;49.40;;;;;;20881;6688;305118;31
2023/09/21 02:25:55;;;;;;;2.67;2.47;;;21.20;49.60;;;;;;20878;6689;303692;31
2023/09/21 02:28:22;;;;;;;2.55;2.35;;;21.30;49.40;;;;;;21081;6689;67500;31
2023/09/21 02:30:47;;;;;;;2.80;2.60;;;21.00;49.60;;;;;;20893;6681;302889;31
2023/09/21 02:33:15;;;;;;;3.10;2.58;;;20.90;50.40;;;;;;20876;6689;303543;31
2023/09/21 02:35:41;;;;;;;3.27;2.97;;;21.10;50.30;;;;;;20874;6689;311350;31
2023/09/21 02:38:05;;;;;;;5.18;2.40;;;21.20;50.10;;;;;;21092;6689;67073;31
2023/09/21 02:40:30;;;;;;;3.13;2.93;;;20.90;50.20;;;;;;20871;6689;275696;31
2023/09/21 02:42:56;;;;;;;3.00;2.80;;;20.80;50.70;;;;;;20871;6689;332881;31
2023/09/21 02:45:23;;;;;;;3.30;3.00;;;20.90;50.60;;;;;;20859;6690;305069;31
2023/09/21 02:47:48;;;;;;;2.60;2.40;;;21.00;50.40;;;;;;21086;6690;71800;31
2023/09/21 02:50:21;;;;;;;3.13;2.63;;;20.80;50.60;;;;;;21096;6690;67861;31
2023/09/21 02:52:45;;;;;;;3.33;2.80;;;20.40;51.10;;;;;;21090;6690;69350;31
2023/09/21 02:55:11;;;;;;;2.67;2.47;;;20.00;51.60;;;;;;21070;6690;66166;31
2023/09/21 02:57:37;;;;;;;3.80;2.60;;;19.80;52.00;;;;;;21082;6690;66540;31
2023/09/21 03:00:11;;;;;;;3.12;2.90;;;19.60;52.30;;;;;;20903;6682;275086;31
2023/09/21 03:02:29;;;;;;;3.50;3.28;;;19.80;52.80;;;;;;20838;6690;303631;31
2023/09/21 03:04:55;;;;;;;4.05;3.05;;;20.20;52.40;;;;;;21081;6690;67103;31
2023/09/21 03:07:21;;;;;;;2.93;2.83;;;20.10;52.10;;;;;;20864;6690;273428;31
2023/09/21 03:09:44;;;;;;;3.37;3.13;;;20.20;52.40;;;;;;20841;6690;328231;31
2023/09/21 03:12:10;;;;;;;3.90;2.80;;;20.50;51.70;;;;;;21139;6675;66581;31
2023/09/21 03:14:35;;;;;;;2.60;2.50;;;20.40;51.80;;;;;;21108;6682;66581;31
2023/09/21 03:17:01;;;;;;;3.00;2.80;;;20.10;52.10;;;;;;20889;6690;275148;31
2023/09/21 03:19:27;;;;;;;3.65;3.35;;;20.30;52.60;;;;;;20871;6690;341510;31
2023/09/21 03:21:52;;;;;;;3.40;3.10;;;20.60;52.00;;;;;;20927;6675;283592;31
2023/09/21 03:24:18;;;;;;;3.20;3.00;;;20.90;51.90;;;;;;21134;6675;73457;31
2023/09/21 03:26:45;;;;;;;3.03;2.83;;;20.80;51.40;;;;;;20878;6690;303895;31
2023/09/21 03:29:12;;;;;;;3.10;2.80;;;20.80;51.20;;;;;;21095;6690;74242;31
2023/09/21 03:31:36;;;;;;;3.50;3.20;;;20.60;51.30;;;;;;20874;6690;303668;31
2023/09/21 03:34:02;;;;;;;3.33;2.70;;;20.70;51.40;;;;;;21116;6690;66147;31
2023/09/21 03:36:26;;;;;;;2.50;2.30;;;20.50;51.40;;;;;;21178;6673;67729;31
2023/09/21 03:38:54;;;;;;;2.73;2.53;;;20.30;51.80;;;;;;20937;6689;310371;31
2023/09/21 03:41:17;;;;;;;3.10;2.90;;;20.40;51.80;;;;;;21130;6689;66038;31
2023/09/21 03:43:43;;;;;;;3.17;2.50;;;20.30;51.80;;;;;;21142;6675;70800;31
2023/09/21 03:46:08;;;;;;;2.20;2.10;;;20.20;52.20;;;;;;21107;6689;78241;31
2023/09/21 03:48:35;;;;;;;2.30;2.20;;;20.00;52.40;;;;;;21098;6689;70007;31
2023/09/21 03:51:04;;;;;;;2.63;2.43;;;19.90;52.60;;;;;;20882;6689;274703;31
2023/09/21 03:53:26;;;;;;;2.73;2.53;;;20.10;52.90;;;;;;21082;6689;66016;31
2023/09/21 03:55:51;;;;;;;2.55;2.42;;;20.20;52.70;;;;;;20865;6690;304170;31
2023/09/21 03:58:17;;;;;;;2.40;2.30;;;20.40;52.30;;;;;;21092;6690;67063;31
2023/09/21 04:00:42;;;;;;;2.73;2.53;;;20.40;52.00;;;;;;21092;6690;66008;31
2023/09/21 04:03:10;;;;;;;1.90;1.80;;;20.20;52.20;;;;;;21109;6690;67518;31
2023/09/21 04:05:42;;;;;;;2.87;2.67;;;20.10;52.50;;;;;;20903;6690;302916;31
2023/09/21 04:08:06;;;;;;;2.90;2.50;;;20.30;52.40;;;;;;21090;6690;69489;31
2023/09/21 04:10:31;;;;;;;2.70;2.50;;;20.40;52.20;;;;;;20903;6690;313936;31
2023/09/21 04:12:57;;;;;;;3.15;2.75;;;20.60;52.80;;;;;;20888;6690;301873;31
2023/09/21 04:15:25;;;;;;;2.33;2.23;;;20.80;52.40;;;;;;21116;6690;69523;31
2023/09/21 04:17:51;;;;;;;3.00;2.67;;;20.70;52.30;;;;;;21109;6690;66531;31
2023/09/21 04:20:18;;;;;;;3.30;2.23;;;20.40;52.60;;;;;;21114;6690;70320;31
2023/09/21 04:22:43;;;;;;;2.80;2.60;;;20.10;52.80;;;;;;20883;6690;274734;31
2023/09/21 04:25:09;;;;;;;2.70;2.50;;;20.20;53.30;;;;;;20899;6690;331959;31
2023/09/21 04:27:35;;;;;;;3.15;2.90;;;20.50;52.80;;;;;;20896;6690;303768;31
2023/09/21 04:30:00;;;;;;;3.33;3.12;;;20.80;52.30;;;;;;20900;6690;312861;31
2023/09/21 04:32:26;;;;;;;10.73;9.90;;;21.00;51.70;;;;;;21114;6690;67911;31
2023/09/21 04:34:51;;;;;;;14.80;13.57;;;20.80;51.70;;;;;;20892;6690;274730;31
2023/09/21 04:37:18;;;;;;;5.57;5.18;;;20.80;51.70;;;;;;21114;6690;66622;31
2023/09/21 04:39:43;;;;;;;3.40;3.13;;;20.70;51.90;;;;;;21108;6690;72231;31
2023/09/21 04:42:12;;;;;;;3.50;3.30;;;20.40;52.10;;;;;;20902;6690;340987;31
2023/09/21 04:44:35;;;;;;;6.03;4.13;;;20.50;52.30;;;;;;21139;6682;66011;31
2023/09/21 04:47:02;;;;;;;2.90;2.60;;;20.40;52.20;;;;;;21131;6688;67561;31
2023/09/21 04:49:26;;;;;;;3.90;3.47;;;20.30;52.60;;;;;;21114;6689;66103;31
2023/09/21 04:51:51;;;;;;;3.90;3.60;;;20.10;52.80;;;;;;20925;6681;273872;31
2023/09/21 04:54:18;;;;;;;2.80;2.60;;;20.30;53.50;;;;;;20894;6689;303947;31
2023/09/21 04:56:43;;;;;;;3.00;2.80;;;20.60;53.20;;;;;;20840;6689;278028;31
2023/09/21 04:59:09;;;;;;;2.90;2.70;;;20.80;52.60;;;;;;21118;6689;66715;31
2023/09/21 05:01:35;;;;;;;2.80;2.50;;;20.60;52.50;;;;;;21110;6689;67048;31
2023/09/21 05:04:01;;;;;;;3.93;2.80;;;20.30;52.80;;;;;;20892;6689;304023;31
2023/09/21 05:06:26;;;;;;;3.25;2.95;;;20.30;53.10;;;;;;20878;6689;303150;31
2023/09/21 05:08:53;;;;;;;2.80;2.60;;;20.50;52.90;;;;;;20919;6690;275202;31
2023/09/21 05:11:18;;;;;;;3.83;2.87;;;20.80;52.60;;;;;;20900;6690;324786;31
2023/09/21 05:13:43;;;;;;;3.20;3.00;;;20.90;52.10;;;;;;20897;6690;302912;31
2023/09/21 05:16:09;;;;;;;3.00;2.90;;;21.00;52.60;;;;;;20881;6690;305081;31
2023/09/21 05:18:34;;;;;;;3.40;3.20;;;21.00;51.50;;;;;;20876;6690;313417;31
2023/09/21 05:21:04;;;;;;;3.33;2.93;;;21.00;51.40;;;;;;20863;6690;280898;31
2023/09/21 05:23:26;;;;;;;3.20;3.00;;;21.10;51.50;;;;;;20799;6690;306787;31
2023/09/21 05:25:51;;;;;;;4.00;2.90;;;21.10;51.30;;;;;;20875;6690;323786;31
2023/09/21 05:28:19;;;;;;;3.90;3.00;;;21.10;51.40;;;;;;20895;6690;307210;31
2023/09/21 05:30:43;;;;;;;2.80;2.60;;;21.10;51.50;;;;;;21107;6690;67578;31
2023/09/21 05:33:08;;;;;;;3.00;2.80;;;20.80;51.70;;;;;;21116;6690;66602;31
2023/09/21 05:35:34;;;;;;;3.10;2.80;;;20.40;52.40;;;;;;20891;6690;311793;31
2023/09/21 05:37:59;;;;;;;3.20;3.00;;;20.50;52.70;;;;;;20903;6690;320738;31
2023/09/21 05:40:25;;;;;;;3.47;3.00;;;20.70;52.20;;;;;;20943;6675;281223;31
2023/09/21 05:42:50;;;;;;;3.30;3.10;;;20.90;52.00;;;;;;20898;6690;303278;31
2023/09/21 05:45:16;;;;;;;4.10;3.40;;;21.10;51.90;;;;;;20912;6690;312688;31
2023/09/21 05:47:42;;;;;;;2.30;2.20;;;21.20;51.30;;;;;;21095;6690;67062;31
2023/09/21 05:50:08;;;;;;;2.90;2.70;;;20.90;51.50;;;;;;21099;6690;66251;31
2023/09/21 05:52:35;;;;;;;3.63;3.33;;;20.50;52.20;;;;;;20893;6690;303263;31
2023/09/21 05:54:59;;;;;;;3.60;3.30;;;20.60;52.60;;;;;;20892;6690;299205;31
2023/09/21 05:57:24;;;;;;;3.60;3.30;;;20.90;52.30;;;;;;20947;6675;323563;31
2023/09/21 05:59:50;;;;;;;3.37;3.00;;;21.20;51.50;;;;;;21116;6688;67001;31
2023/09/21 06:02:15;;;;;;;3.40;3.20;;;21.10;51.50;;;;;;20920;6689;274018;31
2023/09/21 06:04:41;;;;;;;3.27;2.97;;;21.20;51.50;;;;;;20920;6689;330720;31
2023/09/21 06:07:06;;;;;;;4.03;2.80;;;21.50;51.30;;;;;;21139;6689;66691;31
2023/09/21 06:09:33;;;;;;;3.20;3.00;;;21.40;51.30;;;;;;20912;6689;278078;31
2023/09/21 06:11:58;;;;;;;5.13;2.60;;;21.50;51.30;;;;;;21125;6689;67063;31
2023/09/21 06:14:23;;;;;;;3.28;2.87;;;21.40;51.40;;;;;;20924;6689;303691;31
2023/09/21 06:16:50;;;;;;;2.93;2.73;;;21.40;51.40;;;;;;21135;6689;67891;31
2023/09/21 06:19:14;;;;;;;2.97;2.77;;;21.40;51.50;;;;;;21129;6690;67456;31
2023/09/21 06:21:40;;;;;;;2.83;2.73;;;21.20;51.90;;;;;;21138;6690;71511;31
2023/09/21 06:24:08;;;;;;;3.37;2.73;;;21.10;52.60;;;;;;21135;6690;68671;31
2023/09/21 06:26:34;;;;;;;3.43;3.13;;;21.00;52.00;;;;;;20927;6690;281657;31
2023/09/21 06:28:59;;;;;;;3.60;3.30;;;21.30;51.30;;;;;;20921;6690;274090;31
2023/09/21 06:31:25;;;;;;;3.30;3.10;;;21.60;49.90;;;;;;20926;6690;273970;31
2023/09/21 06:33:52;;;;;;;3.10;2.67;;;22.00;49.60;;;;;;21131;6690;66717;31
2023/09/21 06:36:20;;;;;;;3.17;2.97;;;21.90;49.70;;;;;;20936;6682;304039;31
2023/09/21 06:38:44;;;;;;;2.90;2.70;;;22.10;50.00;;;;;;21087;6690;69550;31
2023/09/21 06:41:10;;;;;;;3.00;2.70;;;22.20;50.40;;;;;;21119;6690;67332;31
2023/09/21 06:43:37;;;;;;;3.37;3.05;;;22.20;50.60;;;;;;20900;6690;333279;31
2023/09/21 06:46:02;;;;;;;3.67;2.63;;;22.60;49.20;;;;;;21108;6690;66878;31
2023/09/21 06:48:28;;;;;;;3.33;3.13;;;22.80;49.10;;;;;;20884;6690;303635;31
2023/09/21 06:50:54;;;;;;;3.20;2.72;;;23.30;48.60;;;;;;21115;6690;66466;31
2023/09/21 06:53:24;;;;;;;2.80;2.60;;;23.40;48.30;;;;;;21115;6690;66036;31
2023/09/21 06:55:46;;;;;;;3.10;2.90;;;23.40;48.50;;;;;;20874;6690;274559;31
2023/09/21 06:58:11;;;;;;;3.35;3.10;;;23.50;47.50;;;;;;21114;6690;69826;31
2023/09/21 07:00:37;;;;;;;2.92;2.72;;;23.50;47.80;;;;;;21121;6690;68853;31
2023/09/21 07:03:03;;;;;;;2.80;2.60;;;23.30;48.30;;;;;;21107;6690;66382;31
2023/09/21 07:05:28;;;;;;;3.63;3.07;;;23.10;49.50;;;;;;21115;6690;69865;31
2023/09/21 07:07:54;;;;;;;3.30;2.60;;;23.00;49.10;;;;;;21131;6682;66476;31
2023/09/21 07:10:19;;;;;;;2.50;2.28;;;22.90;49.30;;;;;;21117;6688;70219;31
2023/09/21 07:12:45;;;;;;;3.00;2.80;;;22.90;49.70;;;;;;20895;6689;306103;31
2023/09/21 07:15:11;;;;;;;2.80;2.70;;;23.30;48.40;;;;;;20899;6689;340983;31
2023/09/21 07:17:36;;;;;;;3.20;3.00;;;23.80;47.90;;;;;;20895;6689;303317;31
2023/09/21 07:20:04;;;;;;;3.13;2.93;;;24.30;47.20;;;;;;21110;6689;79483;31
2023/09/21 07:22:29;;;;;;;3.13;2.90;;;24.30;47.60;;;;;;20895;6689;303851;31
2023/09/21 07:24:54;;;;;;;2.60;2.40;;;24.60;46.30;;;;;;21155;6675;71534;31
2023/09/21 07:27:22;;;;;;;2.47;2.37;;;24.60;46.50;;;;;;21120;6689;66001;31
2023/09/21 07:29:45;;;;;;;3.05;2.85;;;24.50;46.80;;;;;;20902;6689;275190;31
2023/09/21 07:32:11;;;;;;;3.20;2.80;;;24.60;46.40;;;;;;21108;6690;66488;31
2023/09/21 07:34:37;;;;;;;3.83;2.57;;;24.60;46.40;;;;;;21126;6690;69479;31
2023/09/21 07:37:02;;;;;;;3.10;2.90;;;24.50;46.60;;;;;;20877;6690;303856;31
2023/09/21 07:39:28;;;;;;;3.00;2.80;;;24.60;45.90;;;;;;20897;6690;303671;31
2023/09/21 07:41:53;;;;;;;2.83;2.60;;;24.90;45.60;;;;;;20904;6690;281094;31
2023/09/21 07:44:20;;;;;;;2.92;2.70;;;25.10;45.20;;;;;;20892;6690;284957;31
2023/09/21 07:46:45;;;;;;;2.70;2.50;;;25.30;45.10;;;;;;20928;6682;273907;31
2023/09/21 07:49:10;;;;;;;2.37;2.23;;;25.40;45.80;;;;;;21098;6690;67581;31
2023/09/21 07:51:36;;;;;;;4.22;2.90;;;25.30;46.20;;;;;;20891;6690;304045;31
2023/09/21 07:54:02;;;;;;;2.83;2.47;;;25.40;47.00;;;;;;21112;6690;66541;31
2023/09/21 07:56:27;;;;;;;3.17;3.00;;;25.30;46.80;;;;;;21122;6690;66432;31
2023/09/21 07:58:52;;;;;;;2.53;2.43;;;25.20;47.00;;;;;;21118;6690;70847;31
2023/09/21 08:01:18;;;;;;;2.60;2.50;;;25.00;47.30;;;;;;20896;6690;277579;31
2023/09/21 08:03:44;;;;;;;2.85;2.62;;;25.10;46.30;;;;;;20953;6675;311069;31
2023/09/21 08:06:09;;;;;;;2.67;2.43;;;25.40;45.70;;;;;;21127;6690;65996;31
2023/09/21 08:08:35;;;;;;;2.70;2.50;;;25.50;45.80;;;;;;21137;6690;74223;31
2023/09/21 08:11:00;;;;;;;2.70;2.50;;;25.40;46.00;;;;;;21098;6690;66010;31
2023/09/21 08:13:26;;;;;;;3.90;2.23;;;25.20;46.00;;;;;;21144;6682;66231;31
2023/09/21 08:15:55;;;;;;;2.87;2.55;;;25.10;46.10;;;;;;20934;6682;287625;31
2023/09/21 08:18:20;;;;;;;2.90;2.70;;;25.30;45.20;;;;;;20886;6690;303585;31
2023/09/21 08:20:46;;;;;;;2.87;2.65;;;25.60;45.10;;;;;;20895;6690;312173;31
2023/09/21 08:23:11;;;;;;;4.32;2.90;;;26.00;43.90;;;;;;20897;6688;274179;31
2023/09/21 08:25:37;;;;;;;3.15;2.83;;;26.20;44.20;;;;;;21117;6689;76917;31
2023/09/21 08:28:07;;;;;;;2.77;2.57;;;26.10;44.40;;;;;;21111;6689;70880;31
2023/09/21 08:30:31;;;;;;;3.27;2.60;;;25.90;44.70;;;;;;20895;6689;311544;31
2023/09/21 08:32:57;;;;;;;3.03;2.80;;;25.90;44.00;;;;;;20904;6689;312608;31
2023/09/21 08:35:23;;;;;;;3.08;2.78;;;26.20;44.00;;;;;;20894;6689;274446;31
2023/09/21 08:37:50;;;;;;;2.80;2.60;;;26.50;43.80;;;;;;21116;6689;66056;31
2023/09/21 08:40:14;;;;;;;2.87;2.70;;;26.50;43.70;;;;;;21105;6689;65640;31
2023/09/21 08:42:40;;;;;;;2.30;2.20;;;26.40;44.10;;;;;;21120;6690;66456;31
2023/09/21 08:45:09;;;;;;;2.40;2.30;;;26.50;44.60;;;;;;21118;6690;66764;31
2023/09/21 08:47:34;;;;;;;3.45;2.60;;;26.50;45.50;;;;;;20902;6690;274212;31
2023/09/21 08:49:59;;;;;;;3.00;2.80;;;26.90;44.20;;;;;;21114;6690;65988;31
2023/09/21 08:52:25;;;;;;;2.60;2.40;;;27.30;44.00;;;;;;20885;6690;275940;31
2023/09/21 08:54:50;;;;;;;2.40;2.30;;;27.60;42.40;;;;;;20893;6690;312901;31
2023/09/21 08:57:16;;;;;;;3.03;2.20;;;28.20;40.70;;;;;;21104;6690;66522;31
2023/09/21 08:59:41;;;;;;;4.60;2.40;;;28.30;41.00;;;;;;21107;6690;65646;31
2023/09/21 09:02:10;;;;;;;2.65;2.45;;;28.20;41.50;;;;;;20888;6690;278152;31
2023/09/21 09:04:36;;;;;;;2.20;2.07;;;28.30;40.80;;;;;;21073;6690;66427;31
2023/09/21 09:07:01;;;;;;;2.97;2.42;;;28.30;40.90;;;;;;20908;6690;332750;31
2023/09/21 09:09:27;;;;;;;3.37;2.43;;;28.40;41.80;;;;;;21130;6690;65950;31
2023/09/21 09:11:54;;;;;;;3.67;2.33;;;28.50;42.00;;;;;;20928;6690;303314;31
2023/09/21 09:14:19;;;;;;;2.83;2.63;;;28.80;41.20;;;;;;20919;6690;282322;31
2023/09/21 09:16:46;;;;;;;2.67;2.50;;;29.10;40.60;;;;;;21122;6690;67344;31
2023/09/21 09:19:11;;;;;;;2.40;2.20;;;29.10;40.60;;;;;;21099;6690;66464;31
2023/09/21 09:21:37;;;;;;;4.07;2.20;;;28.80;40.90;;;;;;21117;6690;66757;31
2023/09/21 09:24:02;;;;;;;3.20;2.47;;;28.60;41.50;;;;;;21121;6690;66056;31
2023/09/21 09:26:27;;;;;;;2.50;2.30;;;28.60;41.80;;;;;;20885;6690;284274;31
2023/09/21 09:29:06;;;;;;;2.85;2.45;;;28.60;40.30;;;;;;20908;6690;279043;31
2023/09/21 09:31:32;;;;;;;4.70;2.37;;;28.80;40.60;;;;;;20891;6690;274207;31
2023/09/21 09:33:59;;;;;;;4.90;2.30;;;29.20;40.10;;;;;;21123;6688;65563;31
2023/09/21 09:36:27;;;;;;;3.70;2.50;;;29.20;39.90;;;;;;20919;6681;279294;31
2023/09/21 09:38:52;;;;;;;2.40;2.10;;;29.30;39.10;;;;;;20902;6689;303789;31
2023/09/21 09:41:18;;;;;;;2.20;1.97;;;29.50;40.20;;;;;;21118;6689;67083;31
2023/09/21 09:43:43;;;;;;;2.43;2.13;;;29.50;39.70;;;;;;20902;6689;275031;31
2023/09/21 09:46:12;;;;;;;1.83;1.73;;;29.70;38.40;;;;;;21104;6689;65588;31
2023/09/21 09:48:36;;;;;;;2.17;2.00;;;29.70;38.50;;;;;;20912;6689;273741;31
2023/09/21 09:51:03;;;;;;;1.90;1.80;;;29.70;37.70;;;;;;21114;6689;65649;31
2023/09/21 09:53:28;;;;;;;3.37;1.83;;;29.50;38.00;;;;;;20849;6690;281365;31
2023/09/21 09:55:53;;;;;;;1.87;1.77;;;29.50;35.80;;;;;;21105;6690;68567;31
2023/09/21 09:58:20;;;;;;;1.83;1.73;;;29.30;36.50;;;;;;20890;6690;311123;31
2023/09/21 10:00:45;;;;;;;2.73;1.70;;;29.30;35.80;;;;;;21109;6690;70001;31
2023/09/21 10:03:12;;;;;;;2.20;2.10;;;29.20;36.60;;;;;;20901;6690;274722;31
2023/09/21 10:05:38;;;;;;;2.20;2.03;;;29.20;36.60;;;;;;20887;6690;303692;31
2023/09/21 10:08:03;;;;;;;3.62;2.10;;;29.40;37.20;;;;;;20910;6690;274801;31
2023/09/21 10:10:32;;;;;;;2.17;2.00;;;29.70;36.70;;;;;;20897;6690;304126;31
2023/09/21 10:12:57;;;;;;;2.93;2.17;;;29.90;36.00;;;;;;20889;6690;303427;31
2023/09/21 10:15:23;;;;;;;2.12;2.03;;;30.00;35.80;;;;;;20936;6675;303496;31
2023/09/21 10:17:50;;;;;;;2.22;2.03;;;30.10;34.00;;;;;;20896;6690;282739;31
2023/09/21 10:20:14;;;;;;;5.63;1.97;;;30.20;32.90;;;;;;20896;6690;296285;31
2023/09/21 10:22:42;;;;;;;1.80;1.75;;;30.40;33.40;;;;;;21100;6690;65981;31
2023/09/21 10:25:06;;;;;;;2.13;1.50;;;30.30;34.00;;;;;;21108;6690;66042;31
2023/09/21 10:27:31;;;;;;;2.00;1.90;;;30.20;34.00;;;;;;20890;6690;304225;31
2023/09/21 10:30:07;;;;;;;1.80;1.70;;;30.40;33.50;;;;;;21097;6690;65329;31
2023/09/21 10:32:45;;;;;;;1.97;1.80;;;30.50;33.50;;;;;;20890;6690;275195;31
2023/09/21 10:35:18;;;;;;;1.57;1.50;;;30.70;32.60;;;;;;21099;6690;68720;31
2023/09/21 10:37:40;;;;;;;1.60;1.50;;;30.70;33.20;;;;;;21077;6690;65796;31
2023/09/21 10:40:08;;;;;;;2.40;1.77;;;30.60;33.20;;;;;;21129;6682;66648;31
2023/09/21 10:42:33;;;;;;;2.10;1.53;;;30.50;34.60;;;;;;21096;6690;66054;31
2023/09/21 10:45:05;;;;;;;1.80;1.70;;;30.40;34.30;;;;;;20879;6688;304099;31
2023/09/21 10:47:37;;;;;;;1.50;1.50;;;30.50;33.70;;;;;;21133;6674;66339;31
2023/09/21 10:50:03;;;;;;;1.70;1.60;;;30.60;34.10;;;;;;20886;6689;304094;31
2023/09/21 10:52:28;;;;;;;2.70;1.80;;;30.70;34.20;;;;;;21095;6689;66223;31
2023/09/21 10:54:57;;;;;;;2.00;1.90;;;30.80;34.30;;;;;;21119;6689;70536;31
2023/09/21 10:57:26;;;;;;;3.50;3.07;;;30.70;34.50;;;;;;21105;6689;65919;31
2023/09/21 10:59:52;;;;;;;1.90;1.80;;;30.50;34.40;;;;;;20899;6689;304807;31
2023/09/21 11:02:17;;;;;;;2.07;1.97;;;30.70;33.10;;;;;;20971;6675;273104;31
2023/09/21 11:04:43;;;;;;;1.87;1.77;;;30.90;33.10;;;;;;20930;6690;283801;31
2023/09/21 11:07:09;;;;;;;2.10;1.90;;;31.10;32.80;;;;;;20927;6682;300160;31
2023/09/21 11:09:35;;;;;;;2.23;1.73;;;31.30;33.60;;;;;;21114;6690;67046;31
2023/09/21 11:12:00;;;;;;;1.87;1.70;;;31.10;33.70;;;;;;21121;6690;65561;31
2023/09/21 11:14:26;;;;;;;1.73;1.63;;;31.00;34.20;;;;;;21099;6690;66383;31
2023/09/21 11:16:52;;;;;;;2.03;1.87;;;30.90;34.30;;;;;;20908;6690;282396;31
2023/09/21 11:19:17;;;;;;;1.80;1.70;;;31.00;33.80;;;;;;21114;6690;65642;31
2023/09/21 11:21:44;;;;;;;2.42;1.90;;;31.10;33.80;;;;;;20900;6690;304091;31
2023/09/21 11:24:09;;;;;;;2.00;1.90;;;31.30;33.60;;;;;;20899;6690;275415;31
2023/09/21 11:26:35;;;;;;;2.10;1.73;;;31.50;32.90;;;;;;20890;6690;304617;31
2023/09/21 11:29:00;;;;;;;2.93;1.50;;;31.70;32.30;;;;;;21117;6690;73345;31
2023/09/21 11:31:30;;;;;;;1.97;1.87;;;31.60;32.60;;;;;;21105;6690;68090;31
2023/09/21 11:33:55;;;;;;;1.80;1.50;;;31.30;32.90;;;;;;21113;6690;68981;31
2023/09/21 11:36:20;;;;;;;1.83;1.73;;;31.00;33.20;;;;;;20870;6690;274979;31
2023/09/21 11:38:46;;;;;;;2.07;1.90;;;31.00;33.10;;;;;;21134;6682;68674;31
2023/09/21 11:41:13;;;;;;;1.70;1.60;;;30.90;33.30;;;;;;21132;6690;66020;31
2023/09/21 11:43:38;;;;;;;1.87;1.77;;;30.70;33.50;;;;;;21119;6690;76740;31
2023/09/21 11:46:06;;;;;;;1.87;1.77;;;30.40;33.70;;;;;;20909;6690;274109;31
2023/09/21 11:48:30;;;;;;;1.90;1.67;;;30.50;33.10;;;;;;21111;6690;66103;31
2023/09/21 11:50:55;;;;;;;6.77;1.87;;;30.40;33.50;;;;;;21131;6690;66061;31
2023/09/21 11:53:21;;;;;;;1.70;1.60;;;30.20;33.90;;;;;;20913;6690;289125;31
2023/09/21 11:55:47;;;;;;;3.00;1.70;;;30.30;34.70;;;;;;21121;6690;68381;31
2023/09/21 11:58:15;;;;;;;2.03;1.87;;;30.30;34.80;;;;;;20880;6688;301951;31
2023/09/21 12:00:44;;;;;;;1.77;1.67;;;30.50;33.90;;;;;;20890;6689;303548;31
2023/09/21 12:03:12;;;;;;;1.47;1.27;;;30.80;33.30;;;;;;21109;6689;66387;31
2023/09/21 12:05:36;;;;;;;1.60;1.50;;;30.90;34.00;;;;;;21071;6689;66000;31
2023/09/21 12:08:02;;;;;;;2.00;1.90;;;30.80;34.00;;;;;;20898;6689;303692;31
2023/09/21 12:10:26;;;;;;;1.93;1.73;;;30.90;32.70;;;;;;20883;6689;309532;31
2023/09/21 12:12:53;;;;;;;1.83;1.73;;;31.30;32.60;;;;;;21103;6689;77033;31
2023/09/21 12:15:19;;;;;;;1.60;1.50;;;31.30;32.80;;;;;;20883;6689;278257;31
2023/09/21 12:18:02;;;;;;;2.17;1.50;;;31.40;32.60;;;;;;20892;6690;302302;31
2023/09/21 12:20:37;;;;;;;1.60;1.50;;;31.70;31.20;;;;;;20861;6675;332685;31
2023/09/21 12:23:05;;;;;;;1.83;1.73;;;32.00;32.30;;;;;;21142;6690;69321;31
2023/09/21 12:25:29;;;;;;;1.77;1.65;;;31.90;32.30;;;;;;20971;6675;303998;31
2023/09/21 12:27:55;;;;;;;1.70;1.60;;;31.80;31.80;;;;;;21175;6690;66393;31
2023/09/21 12:30:21;;;;;;;1.20;1.20;;;31.60;32.30;;;;;;21186;6682;66908;31
2023/09/21 12:32:49;;;;;;;1.50;1.40;;;31.30;33.60;;;;;;20961;6690;309159;31
2023/09/21 12:35:17;;;;;;;1.53;1.33;;;31.20;32.30;;;;;;21154;6690;66565;31
2023/09/21 12:37:42;;;;;;;3.47;1.60;;;31.10;32.60;;;;;;21122;6690;66820;31
2023/09/21 12:40:11;;;;;;;1.90;1.37;;;30.80;33.10;;;;;;20934;6690;302956;31
2023/09/21 12:42:32;;;;;;;2.07;1.57;;;30.90;34.00;;;;;;20942;6690;289908;31
2023/09/21 12:44:58;;;;;;;1.33;1.33;;;31.10;33.00;;;;;;21231;6675;66540;31